sensor_id;sensor_type;location;lat;lon;timestamp;pressure;altitude;pressure_sealevel;temperature;humidity
3428;BME280;1727;42.624;23.406;2023-05-19T00:01:12;95084.00;;;14.22;100.00
3428;BME280;1727;42.624;23.406;2023-05-19T00:03:49;95099.22;;;14.29;100.00
3428;BME280;1727;42.624;23.406;2023-05-19T00:06:21;95090.34;;;14.30;100.00
3428;BME280;1727;42.624;23.406;2023-05-19T00:08:48;95090.34;;;14.30;100.00
3428;BME280;1727;42.624;23.406;2023-05-19T00:11:16;95088.69;;;14.29;100.00
3428;BME280;1727;42.624;23.406;2023-05-19T00:13:43;95085.34;;;14.26;100.00
3428;BME280;1727;42.624;23.406;2023-05-19T00:16:13;95085.34;;;14.26;100.00
3428;BME280;1727;42.624;23.406;2023-05-19T00:18:40;95076.22;;;14.21;100.00
3428;BME280;1727;42.624;23.406;2023-05-19T00:27:52;95076.53;;;14.18;100.00
3428;BME280;1727;42.624;23.406;2023-05-19T00:30:19;95076.94;;;14.13;100.00
3428;BME280;1727;42.624;23.406;2023-05-19T00:32:47;95084.47;;;14.08;100.00
3428;BME280;1727;42.624;23.406;2023-05-19T00:35:14;95074.88;;;14.07;100.00
3428;BME280;1727;42.624;23.406;2023-05-19T00:37:41;95079.03;;;14.10;100.00
3428;BME280;1727;42.624;23.406;2023-05-19T00:40:08;95069.31;;;14.10;100.00
3428;BME280;1727;42.624;23.406;2023-05-19T00:42:35;95068.34;;;14.11;100.00
3428;BME280;1727;42.624;23.406;2023-05-19T00:45:05;95057.78;;;14.11;100.00
3428;BME280;1727;42.624;23.406;2023-05-19T00:47:32;95062.22;;;14.11;100.00
3428;BME280;1727;42.624;23.406;2023-05-19T00:49:59;95067.66;;;14.09;100.00
3428;BME280;1727;42.624;23.406;2023-05-19T00:52:26;95063.50;;;14.07;100.00
3428;BME280;1727;42.624;23.406;2023-05-19T00:54:54;95061.31;;;14.02;100.00
3428;BME280;1727;42.624;23.406;2023-05-19T00:57:21;95073.22;;;14.06;100.00
3428;BME280;1727;42.624;23.406;2023-05-19T00:59:48;95065.59;;;14.03;100.00
3428;BME280;1727;42.624;23.406;2023-05-19T01:02:16;95058.69;;;14.02;100.00
3428;BME280;1727;42.624;23.406;2023-05-19T01:04:43;95063.28;;;14.00;100.00
3428;BME280;1727;42.624;23.406;2023-05-19T01:07:11;95067.56;;;14.01;100.00
3428;BME280;1727;42.624;23.406;2023-05-19T01:09:38;95061.91;;;13.96;100.00
3428;BME280;1727;42.624;23.406;2023-05-19T01:12:06;95064.69;;;13.94;100.00
3428;BME280;1727;42.624;23.406;2023-05-19T01:14:33;95060.53;;;13.92;100.00
3428;BME280;1727;42.624;23.406;2023-05-19T01:17:03;95067.63;;;13.91;100.00
3428;BME280;1727;42.624;23.406;2023-05-19T01:19:55;95060.00;;;13.88;100.00
3428;BME280;1727;42.624;23.406;2023-05-19T01:28:35;95064.56;;;13.86;100.00
3428;BME280;1727;42.624;23.406;2023-05-19T01:31:10;95064.56;;;13.86;100.00
3428;BME280;1727;42.624;23.406;2023-05-19T01:33:39;95058.59;;;13.84;100.00
3428;BME280;1727;42.624;23.406;2023-05-19T01:36:07;95065.53;;;13.85;100.00
3428;BME280;1727;42.624;23.406;2023-05-19T01:38:37;95068.31;;;13.84;100.00
3428;BME280;1727;42.624;23.406;2023-05-19T01:41:05;95070.28;;;13.82;100.00
3428;BME280;1727;42.624;23.406;2023-05-19T01:43:32;95071.13;;;13.82;100.00
3428;BME280;1727;42.624;23.406;2023-05-19T01:46:01;95077.50;;;13.80;100.00
3428;BME280;1727;42.624;23.406;2023-05-19T01:48:31;95076.16;;;13.76;100.00
3428;BME280;1727;42.624;23.406;2023-05-19T01:50:58;95071.69;;;13.76;100.00
3428;BME280;1727;42.624;23.406;2023-05-19T01:53:25;95069.75;;;13.78;100.00
3428;BME280;1727;42.624;23.406;2023-05-19T01:55:53;95070.56;;;13.79;100.00
3428;BME280;1727;42.624;23.406;2023-05-19T01:58:27;95066.97;;;13.80;100.00
3428;BME280;1727;42.624;23.406;2023-05-19T02:01:01;95077.38;;;13.81;100.00
3428;BME280;1727;42.624;23.406;2023-05-19T02:03:41;95086.56;;;13.77;100.00
3428;BME280;1727;42.624;23.406;2023-05-19T02:06:17;95078.09;;;13.74;100.00
3428;BME280;1727;42.624;23.406;2023-05-19T02:08:52;95072.81;;;13.74;100.00
3428;BME280;1727;42.624;23.406;2023-05-19T02:11:27;95068.63;;;13.81;100.00
3428;BME280;1727;42.624;23.406;2023-05-19T02:13:58;95078.72;;;13.85;100.00
3428;BME280;1727;42.624;23.406;2023-05-19T02:16:27;95073.59;;;13.84;100.00
3428;BME280;1727;42.624;23.406;2023-05-19T02:18:56;95070.97;;;13.84;100.00
3428;BME280;1727;42.624;23.406;2023-05-19T02:21:23;95079.72;;;13.84;100.00
3428;BME280;1727;42.624;23.406;2023-05-19T02:23:50;95074.59;;;13.83;100.00
3428;BME280;1727;42.624;23.406;2023-05-19T02:26:17;95076.53;;;13.81;100.00
3428;BME280;1727;42.624;23.406;2023-05-19T02:28:44;95080.16;;;13.80;100.00
3428;BME280;1727;42.624;23.406;2023-05-19T02:31:10;95073.38;;;13.77;100.00
3428;BME280;1727;42.624;23.406;2023-05-19T02:33:37;95078.78;;;13.76;100.00
3428;BME280;1727;42.624;23.406;2023-05-19T02:36:06;95087.81;;;13.73;100.00
3428;BME280;1727;42.624;23.406;2023-05-19T02:38:33;95086.44;;;13.69;100.00
3428;BME280;1727;42.624;23.406;2023-05-19T02:41:00;95089.91;;;13.70;100.00
3428;BME280;1727;42.624;23.406;2023-05-19T02:43:27;95085.63;;;13.69;100.00
3428;BME280;1727;42.624;23.406;2023-05-19T02:45:54;95082.00;;;13.70;100.00
3428;BME280;1727;42.624;23.406;2023-05-19T02:48:21;95089.22;;;13.68;100.00
3428;BME280;1727;42.624;23.406;2023-05-19T02:50:48;95086.88;;;13.64;100.00
3428;BME280;1727;42.624;23.406;2023-05-19T02:53:16;95092.59;;;13.60;100.00
3428;BME280;1727;42.624;23.406;2023-05-19T02:55:43;95091.47;;;13.53;100.00
3428;BME280;1727;42.624;23.406;2023-05-19T02:58:10;95088.16;;;13.51;100.00
3428;BME280;1727;42.624;23.406;2023-05-19T03:00:37;95090.50;;;13.54;100.00
3428;BME280;1727;42.624;23.406;2023-05-19T03:03:03;95093.97;;;13.54;100.00
3428;BME280;1727;42.624;23.406;2023-05-19T03:05:30;95096.91;;;13.51;100.00
3428;BME280;1727;42.624;23.406;2023-05-19T03:07:57;95088.59;;;13.46;100.00
3428;BME280;1727;42.624;23.406;2023-05-19T03:10:25;95097.88;;;13.50;100.00
3428;BME280;1727;42.624;23.406;2023-05-19T03:12:52;95100.78;;;13.47;100.00
3428;BME280;1727;42.624;23.406;2023-05-19T03:15:18;95099.81;;;13.48;100.00
3428;BME280;1727;42.624;23.406;2023-05-19T03:17:47;95099.38;;;13.53;100.00
3428;BME280;1727;42.624;23.406;2023-05-19T03:20:14;95102.03;;;13.53;100.00
3428;BME280;1727;42.624;23.406;2023-05-19T03:22:41;95104.53;;;13.54;100.00
3428;BME280;1727;42.624;23.406;2023-05-19T03:25:08;95102.31;;;13.59;100.00
3428;BME280;1727;42.624;23.406;2023-05-19T03:27:36;95101.34;;;13.60;100.00
3428;BME280;1727;42.624;23.406;2023-05-19T03:30:04;95098.66;;;13.70;100.00
3428;BME280;1727;42.624;23.406;2023-05-19T03:32:31;95093.38;;;13.70;100.00
3428;BME280;1727;42.624;23.406;2023-05-19T03:34:58;95100.03;;;13.74;100.00
3428;BME280;1727;42.624;23.406;2023-05-19T03:37:25;95103.59;;;13.83;100.00
3428;BME280;1727;42.624;23.406;2023-05-19T03:39:51;95104.56;;;13.82;100.00
3428;BME280;1727;42.624;23.406;2023-05-19T03:42:18;95101.91;;;13.91;100.00
3428;BME280;1727;42.624;23.406;2023-05-19T03:44:46;95102.25;;;14.06;100.00
3428;BME280;1727;42.624;23.406;2023-05-19T03:47:13;95095.69;;;14.20;100.00
3428;BME280;1727;42.624;23.406;2023-05-19T03:49:40;95100.06;;;14.29;100.00
3428;BME280;1727;42.624;23.406;2023-05-19T03:52:07;95115.00;;;14.48;100.00
3428;BME280;1727;42.624;23.406;2023-05-19T03:54:34;95111.75;;;14.72;100.00
3428;BME280;1727;42.624;23.406;2023-05-19T03:57:03;95120.75;;;14.97;97.13
3428;BME280;1727;42.624;23.406;2023-05-19T03:59:30;95121.13;;;15.02;96.97
3428;BME280;1727;42.624;23.406;2023-05-19T04:01:58;95120.31;;;15.01;97.28
3428;BME280;1727;42.624;23.406;2023-05-19T04:04:26;95116.69;;;15.02;95.93
3428;BME280;1727;42.624;23.406;2023-05-19T04:06:53;95113.25;;;15.45;100.00
3428;BME280;1727;42.624;23.406;2023-05-19T04:09:20;95121.06;;;16.41;96.25
3428;BME280;1727;42.624;23.406;2023-05-19T04:11:48;95128.56;;;17.28;89.82
3428;BME280;1727;42.624;23.406;2023-05-19T04:14:15;95132.53;;;17.89;84.92
3428;BME280;1727;42.624;23.406;2023-05-19T04:16:42;95139.94;;;18.18;82.09
3428;BME280;1727;42.624;23.406;2023-05-19T04:19:10;95134.03;;;18.47;81.45
3428;BME280;1727;42.624;23.406;2023-05-19T04:21:37;95140.75;;;18.74;80.03
3428;BME280;1727;42.624;23.406;2023-05-19T04:24:04;95150.59;;;19.28;79.00
3428;BME280;1727;42.624;23.406;2023-05-19T04:26:31;95151.81;;;19.71;77.14
3428;BME280;1727;42.624;23.406;2023-05-19T04:28:58;95153.06;;;19.98;75.42
3428;BME280;1727;42.624;23.406;2023-05-19T04:31:26;95163.06;;;19.96;72.74
3428;BME280;1727;42.624;23.406;2023-05-19T04:33:52;95158.72;;;19.95;73.03
3428;BME280;1727;42.624;23.406;2023-05-19T04:36:21;95157.00;;;20.02;74.16
3428;BME280;1727;42.624;23.406;2023-05-19T04:38:48;95159.59;;;20.10;72.92
3428;BME280;1727;42.624;23.406;2023-05-19T04:41:19;95166.78;;;20.24;74.13
3428;BME280;1727;42.624;23.406;2023-05-19T04:43:46;95158.97;;;20.37;75.35
3428;BME280;1727;42.624;23.406;2023-05-19T04:46:14;95155.97;;;20.55;73.68
3428;BME280;1727;42.624;23.406;2023-05-19T04:48:41;95164.69;;;20.64;70.13
3428;BME280;1727;42.624;23.406;2023-05-19T04:51:08;95168.91;;;20.73;70.48
3428;BME280;1727;42.624;23.406;2023-05-19T04:53:40;95160.63;;;20.83;73.30
3428;BME280;1727;42.624;23.406;2023-05-19T04:56:08;95167.34;;;20.64;69.05
3428;BME280;1727;42.624;23.406;2023-05-19T04:58:38;95160.72;;;20.75;75.52
3428;BME280;1727;42.624;23.406;2023-05-19T05:01:05;95157.50;;;20.79;74.18
3428;BME280;1727;42.624;23.406;2023-05-19T05:03:33;95163.94;;;20.70;69.40
3428;BME280;1727;42.624;23.406;2023-05-19T05:06:00;95169.09;;;20.71;69.29
3428;BME280;1727;42.624;23.406;2023-05-19T05:08:27;95171.03;;;20.63;68.47
3428;BME280;1727;42.624;23.406;2023-05-19T05:10:56;95159.06;;;20.73;71.39
3428;BME280;1727;42.624;23.406;2023-05-19T05:13:24;95158.03;;;20.89;67.79
3428;BME280;1727;42.624;23.406;2023-05-19T05:15:51;95171.75;;;20.71;67.35
3428;BME280;1727;42.624;23.406;2023-05-19T05:18:18;95164.25;;;20.60;67.49
3428;BME280;1727;42.624;23.406;2023-05-19T05:20:46;95165.78;;;20.69;67.32
3428;BME280;1727;42.624;23.406;2023-05-19T05:23:13;95169.66;;;20.67;67.78
3428;BME280;1727;42.624;23.406;2023-05-19T05:25:41;95165.59;;;20.86;68.63
3428;BME280;1727;42.624;23.406;2023-05-19T05:28:10;95164.91;;;21.13;68.34
3428;BME280;1727;42.624;23.406;2023-05-19T05:30:37;95164.78;;;21.21;66.29
3428;BME280;1727;42.624;23.406;2023-05-19T05:33:04;95175.13;;;21.46;67.32
3428;BME280;1727;42.624;23.406;2023-05-19T05:35:31;95170.59;;;21.68;66.77
3428;BME280;1727;42.624;23.406;2023-05-19T05:37:58;95169.81;;;21.95;65.14
3428;BME280;1727;42.624;23.406;2023-05-19T05:40:26;95162.41;;;22.18;64.88
3428;BME280;1727;42.624;23.406;2023-05-19T05:42:52;95154.53;;;22.38;64.90
3428;BME280;1727;42.624;23.406;2023-05-19T05:45:22;95154.06;;;22.63;61.95
3428;BME280;1727;42.624;23.406;2023-05-19T05:47:49;95158.97;;;22.87;61.95
3428;BME280;1727;42.624;23.406;2023-05-19T05:50:17;95151.41;;;23.04;61.25
3428;BME280;1727;42.624;23.406;2023-05-19T05:52:45;95154.97;;;23.24;60.38
3428;BME280;1727;42.624;23.406;2023-05-19T05:55:13;95156.22;;;23.28;60.39
3428;BME280;1727;42.624;23.406;2023-05-19T05:57:40;95156.13;;;23.02;58.36
3428;BME280;1727;42.624;23.406;2023-05-19T06:00:07;95158.97;;;22.94;60.11
3428;BME280;1727;42.624;23.406;2023-05-19T06:02:41;95165.09;;;22.53;58.61
3428;BME280;1727;42.624;23.406;2023-05-19T06:05:09;95167.28;;;22.36;59.75
3428;BME280;1727;42.624;23.406;2023-05-19T06:07:37;95168.81;;;22.52;61.44
3428;BME280;1727;42.624;23.406;2023-05-19T06:10:05;95172.34;;;22.87;62.87
3428;BME280;1727;42.624;23.406;2023-05-19T06:12:32;95166.84;;;23.08;59.02
3428;BME280;1727;42.624;23.406;2023-05-19T06:14:59;95171.25;;;23.29;58.29
3428;BME280;1727;42.624;23.406;2023-05-19T06:17:26;95171.03;;;23.17;57.23
3428;BME280;1727;42.624;23.406;2023-05-19T06:19:54;95170.09;;;22.91;59.10
3428;BME280;1727;42.624;23.406;2023-05-19T06:22:21;95168.31;;;22.76;58.86
3428;BME280;1727;42.624;23.406;2023-05-19T06:24:47;95173.84;;;22.34;58.30
3428;BME280;1727;42.624;23.406;2023-05-19T06:27:14;95172.91;;;21.71;61.36
3428;BME280;1727;42.624;23.406;2023-05-19T06:29:41;95163.34;;;22.04;63.91
3428;BME280;1727;42.624;23.406;2023-05-19T06:32:07;95165.44;;;22.37;62.05
3428;BME280;1727;42.624;23.406;2023-05-19T06:34:34;95164.56;;;22.64;60.50
3428;BME280;1727;42.624;23.406;2023-05-19T06:37:04;95165.91;;;22.81;59.66
3428;BME280;1727;42.624;23.406;2023-05-19T06:39:30;95178.38;;;23.09;58.21
3428;BME280;1727;42.624;23.406;2023-05-19T06:41:57;95172.50;;;23.33;58.02
3428;BME280;1727;42.624;23.406;2023-05-19T06:44:24;95171.72;;;23.53;56.38
3428;BME280;1727;42.624;23.406;2023-05-19T06:46:51;95173.84;;;23.70;55.59
3428;BME280;1727;42.624;23.406;2023-05-19T06:49:17;95173.03;;;23.83;57.27
3428;BME280;1727;42.624;23.406;2023-05-19T06:51:44;95174.50;;;24.05;56.30
3428;BME280;1727;42.624;23.406;2023-05-19T06:54:13;95173.28;;;24.01;54.68
3428;BME280;1727;42.624;23.406;2023-05-19T06:56:40;95171.38;;;24.22;55.17
3428;BME280;1727;42.624;23.406;2023-05-19T06:59:07;95179.25;;;24.10;54.11
3428;BME280;1727;42.624;23.406;2023-05-19T07:01:33;95183.16;;;24.07;64.24
3428;BME280;1727;42.624;23.406;2023-05-19T07:04:00;95177.38;;;24.10;53.43
3428;BME280;1727;42.624;23.406;2023-05-19T07:06:27;95175.09;;;23.94;54.29
3428;BME280;1727;42.624;23.406;2023-05-19T07:08:54;95180.66;;;23.79;52.93
3428;BME280;1727;42.624;23.406;2023-05-19T07:11:22;95169.47;;;23.49;53.27
3428;BME280;1727;42.624;23.406;2023-05-19T07:13:49;95165.69;;;23.31;53.55
3428;BME280;1727;42.624;23.406;2023-05-19T07:16:15;95173.72;;;23.31;54.55
3428;BME280;1727;42.624;23.406;2023-05-19T07:18:42;95181.41;;;23.47;57.34
3428;BME280;1727;42.624;23.406;2023-05-19T07:21:09;95181.34;;;23.34;53.77
3428;BME280;1727;42.624;23.406;2023-05-19T07:23:36;95180.38;;;23.55;55.29
3428;BME280;1727;42.624;23.406;2023-05-19T07:26:02;95181.50;;;23.80;53.63
3428;BME280;1727;42.624;23.406;2023-05-19T07:28:31;95186.44;;;23.83;55.18
3428;BME280;1727;42.624;23.406;2023-05-19T07:30:58;95180.25;;;23.89;56.48
3428;BME280;1727;42.624;23.406;2023-05-19T07:33:25;95178.19;;;23.78;55.26
3428;BME280;1727;42.624;23.406;2023-05-19T07:35:52;95173.53;;;23.32;54.69
3428;BME280;1727;42.624;23.406;2023-05-19T07:38:19;95176.00;;;23.34;57.66
3428;BME280;1727;42.624;23.406;2023-05-19T07:40:45;95177.91;;;23.53;58.58
3428;BME280;1727;42.624;23.406;2023-05-19T07:43:12;95176.34;;;23.72;58.45
3428;BME280;1727;42.624;23.406;2023-05-19T07:45:40;95178.59;;;23.88;58.01
3428;BME280;1727;42.624;23.406;2023-05-19T07:48:07;95175.09;;;23.88;57.81
3428;BME280;1727;42.624;23.406;2023-05-19T07:50:34;95177.59;;;24.02;56.88
3428;BME280;1727;42.624;23.406;2023-05-19T07:53:01;95172.03;;;24.10;56.92
3428;BME280;1727;42.624;23.406;2023-05-19T07:55:28;95172.44;;;24.14;55.49
3428;BME280;1727;42.624;23.406;2023-05-19T07:57:55;95166.66;;;23.84;56.11
3428;BME280;1727;42.624;23.406;2023-05-19T08:00:22;95172.13;;;23.49;56.29
3428;BME280;1727;42.624;23.406;2023-05-19T08:02:50;95168.81;;;23.41;57.38
3428;BME280;1727;42.624;23.406;2023-05-19T08:05:17;95169.88;;;23.53;57.63
3428;BME280;1727;42.624;23.406;2023-05-19T08:07:44;95173.22;;;23.62;58.38
3428;BME280;1727;42.624;23.406;2023-05-19T08:10:10;95176.34;;;23.72;58.77
3428;BME280;1727;42.624;23.406;2023-05-19T08:12:37;95171.16;;;23.64;57.61
3428;BME280;1727;42.624;23.406;2023-05-19T08:15:04;95174.44;;;23.66;55.67
3428;BME280;1727;42.624;23.406;2023-05-19T08:17:32;95169.91;;;23.66;56.67
3428;BME280;1727;42.624;23.406;2023-05-19T08:20:00;95175.53;;;23.78;56.47
3428;BME280;1727;42.624;23.406;2023-05-19T08:22:29;95173.47;;;23.87;56.51
3428;BME280;1727;42.624;23.406;2023-05-19T08:24:56;95164.19;;;24.02;56.19
3428;BME280;1727;42.624;23.406;2023-05-19T08:27:22;95169.53;;;24.16;56.42
3428;BME280;1727;42.624;23.406;2023-05-19T08:29:49;95161.50;;;24.16;54.17
3428;BME280;1727;42.624;23.406;2023-05-19T08:32:16;95167.06;;;24.21;55.78
3428;BME280;1727;42.624;23.406;2023-05-19T08:34:43;95165.81;;;24.23;55.65
3428;BME280;1727;42.624;23.406;2023-05-19T08:37:11;95165.88;;;24.30;53.47
3428;BME280;1727;42.624;23.406;2023-05-19T08:39:37;95170.38;;;24.43;55.71
3428;BME280;1727;42.624;23.406;2023-05-19T08:42:05;95167.88;;;24.48;54.36
3428;BME280;1727;42.624;23.406;2023-05-19T08:44:34;95176.34;;;24.51;54.01
3428;BME280;1727;42.624;23.406;2023-05-19T08:47:02;95171.63;;;24.00;53.07
3428;BME280;1727;42.624;23.406;2023-05-19T08:49:32;95168.94;;;24.00;54.52
3428;BME280;1727;42.624;23.406;2023-05-19T08:52:04;95166.66;;;23.97;55.36
3428;BME280;1727;42.624;23.406;2023-05-19T08:54:39;95155.72;;;23.79;55.72
3428;BME280;1727;42.624;23.406;2023-05-19T08:57:08;95164.38;;;23.74;54.62
3428;BME280;1727;42.624;23.406;2023-05-19T08:59:35;95157.09;;;23.55;55.75
3428;BME280;1727;42.624;23.406;2023-05-19T09:02:03;95161.59;;;23.41;55.07
3428;BME280;1727;42.624;23.406;2023-05-19T09:04:31;95158.06;;;23.21;56.41
3428;BME280;1727;42.624;23.406;2023-05-19T09:06:58;95163.41;;;22.80;57.82
3428;BME280;1727;42.624;23.406;2023-05-19T09:09:28;95155.41;;;22.45;59.28
3428;BME280;1727;42.624;23.406;2023-05-19T09:11:56;95148.81;;;22.41;61.45
3428;BME280;1727;42.624;23.406;2023-05-19T09:14:23;95151.16;;;21.74;60.56
3428;BME280;1727;42.624;23.406;2023-05-19T09:16:50;95144.28;;;21.64;63.39
3428;BME280;1727;42.624;23.406;2023-05-19T09:19:17;95145.91;;;21.87;64.28
3428;BME280;1727;42.624;23.406;2023-05-19T09:21:45;95133.75;;;22.06;62.35
3428;BME280;1727;42.624;23.406;2023-05-19T09:24:11;95139.06;;;22.27;62.73
3428;BME280;1727;42.624;23.406;2023-05-19T09:26:40;95139.56;;;22.44;62.98
3428;BME280;1727;42.624;23.406;2023-05-19T09:29:11;95133.44;;;22.22;60.70
3428;BME280;1727;42.624;23.406;2023-05-19T09:31:39;95136.56;;;22.25;62.36
3428;BME280;1727;42.624;23.406;2023-05-19T09:34:11;95135.41;;;22.07;62.57
3428;BME280;1727;42.624;23.406;2023-05-19T09:36:39;95130.56;;;22.23;63.79
3428;BME280;1727;42.624;23.406;2023-05-19T09:39:12;95133.44;;;22.22;63.65
3428;BME280;1727;42.624;23.406;2023-05-19T09:41:39;95128.25;;;22.14;62.64
3428;BME280;1727;42.624;23.406;2023-05-19T09:44:05;95136.28;;;22.14;62.89
3428;BME280;1727;42.624;23.406;2023-05-19T09:46:34;95127.63;;;21.62;63.15
3428;BME280;1727;42.624;23.406;2023-05-19T09:49:07;95128.66;;;21.89;60.90
3428;BME280;1727;42.624;23.406;2023-05-19T09:51:35;95122.59;;;22.02;62.42
3428;BME280;1727;42.624;23.406;2023-05-19T09:54:02;95126.31;;;22.01;63.92
3428;BME280;1727;42.624;23.406;2023-05-19T09:56:33;95120.75;;;21.75;61.10
3428;BME280;1727;42.624;23.406;2023-05-19T09:59:00;95125.88;;;21.98;63.24
3428;BME280;1727;42.624;23.406;2023-05-19T10:01:29;95122.09;;;21.92;61.12
3428;BME280;1727;42.624;23.406;2023-05-19T10:03:59;95123.50;;;21.88;62.08
3428;BME280;1727;42.624;23.406;2023-05-19T10:06:26;95116.00;;;21.98;62.94
3428;BME280;1727;42.624;23.406;2023-05-19T10:08:53;95119.81;;;22.10;65.27
3428;BME280;1727;42.624;23.406;2023-05-19T10:11:21;95120.91;;;22.22;63.31
3428;BME280;1727;42.624;23.406;2023-05-19T10:13:50;95117.06;;;22.32;62.55
3428;BME280;1727;42.624;23.406;2023-05-19T10:16:18;95111.22;;;21.93;61.47
3428;BME280;1727;42.624;23.406;2023-05-19T10:18:48;95108.50;;;21.87;60.24
3428;BME280;1727;42.624;23.406;2023-05-19T10:21:19;95113.44;;;21.90;62.70
3428;BME280;1727;42.624;23.406;2023-05-19T10:23:46;95111.47;;;21.71;63.11
3428;BME280;1727;42.624;23.406;2023-05-19T10:26:13;95104.09;;;21.73;63.53
3428;BME280;1727;42.624;23.406;2023-05-19T10:28:42;95100.97;;;21.97;64.09
3428;BME280;1727;42.624;23.406;2023-05-19T10:31:14;95101.56;;;21.92;59.63
3428;BME280;1727;42.624;23.406;2023-05-19T10:33:58;95093.94;;;22.17;61.08
3428;BME280;1727;42.624;23.406;2023-05-19T10:36:46;95087.88;;;22.37;64.19
3428;BME280;1727;42.624;23.406;2023-05-19T10:39:16;95090.06;;;22.61;65.77
3428;BME280;1727;42.624;23.406;2023-05-19T10:41:55;95089.38;;;22.87;64.92
3428;BME280;1727;42.624;23.406;2023-05-19T10:44:38;95100.13;;;23.07;62.57
3428;BME280;1727;42.624;23.406;2023-05-19T10:47:06;95091.53;;;23.18;60.24
3428;BME280;1727;42.624;23.406;2023-05-19T10:49:36;95091.94;;;23.15;60.72
3428;BME280;1727;42.624;23.406;2023-05-19T10:52:18;95084.94;;;23.27;59.69
3428;BME280;1727;42.624;23.406;2023-05-19T10:54:46;95085.31;;;22.56;57.19
3428;BME280;1727;42.624;23.406;2023-05-19T10:57:16;95076.69;;;22.61;55.56
3428;BME280;1727;42.624;23.406;2023-05-19T10:59:43;95081.69;;;22.77;58.50
3428;BME280;1727;42.624;23.406;2023-05-19T11:02:10;95078.97;;;22.64;56.48
3428;BME280;1727;42.624;23.406;2023-05-19T11:05:06;95080.06;;;22.83;56.38
3428;BME280;1727;42.624;23.406;2023-05-19T11:07:35;95081.69;;;22.77;56.56
3428;BME280;1727;42.624;23.406;2023-05-19T11:10:05;95079.09;;;22.91;54.62
3428;BME280;1727;42.624;23.406;2023-05-19T11:12:39;95079.00;;;22.77;55.01
3428;BME280;1727;42.624;23.406;2023-05-19T11:15:08;95076.00;;;22.87;56.44
3428;BME280;1727;42.624;23.406;2023-05-19T11:17:38;95075.41;;;22.98;55.74
3428;BME280;1727;42.624;23.406;2023-05-19T11:20:07;95079.53;;;23.07;57.11
3428;BME280;1727;42.624;23.406;2023-05-19T11:22:36;95068.16;;;22.44;56.32
3428;BME280;1727;42.624;23.406;2023-05-19T11:25:05;95074.53;;;22.37;58.05
3428;BME280;1727;42.624;23.406;2023-05-19T11:27:34;95065.72;;;22.08;58.04
3428;BME280;1727;42.624;23.406;2023-05-19T11:30:08;95066.38;;;21.89;56.01
3428;BME280;1727;42.624;23.406;2023-05-19T11:32:39;95069.09;;;21.68;56.96
3428;BME280;1727;42.624;23.406;2023-05-19T11:35:07;95075.41;;;21.60;58.04
3428;BME280;1727;42.624;23.406;2023-05-19T11:37:36;95081.63;;;21.67;59.34
3428;BME280;1727;42.624;23.406;2023-05-19T11:40:06;95089.34;;;21.13;65.05
3428;BME280;1727;42.624;23.406;2023-05-19T11:42:34;95101.00;;;20.54;71.02
3428;BME280;1727;42.624;23.406;2023-05-19T11:45:02;95105.13;;;20.27;78.24
3428;BME280;1727;42.624;23.406;2023-05-19T11:47:30;95113.44;;;19.95;74.99
3428;BME280;1727;42.624;23.406;2023-05-19T11:49:57;95126.31;;;19.54;80.56
3428;BME280;1727;42.624;23.406;2023-05-19T11:52:24;95128.13;;;19.30;76.46
3428;BME280;1727;42.624;23.406;2023-05-19T11:54:53;95130.94;;;19.06;80.28
3428;BME280;1727;42.624;23.406;2023-05-19T11:57:21;95136.66;;;18.95;84.37
3428;BME280;1727;42.624;23.406;2023-05-19T11:59:47;95157.81;;;18.41;87.34
3428;BME280;1727;42.624;23.406;2023-05-19T12:02:18;95160.41;;;18.10;85.25
3428;BME280;1727;42.624;23.406;2023-05-19T12:04:45;95174.31;;;17.14;83.76
3428;BME280;1727;42.624;23.406;2023-05-19T12:07:14;95173.97;;;16.59;81.61
3428;BME280;1727;42.624;23.406;2023-05-19T12:09:43;95160.81;;;16.41;84.36
3428;BME280;1727;42.624;23.406;2023-05-19T12:12:13;95170.66;;;16.57;87.12
3428;BME280;1727;42.624;23.406;2023-05-19T12:14:41;95167.34;;;16.63;88.22
3428;BME280;1727;42.624;23.406;2023-05-19T12:17:12;95164.03;;;16.61;84.55
3428;BME280;1727;42.624;23.406;2023-05-19T12:19:39;95149.53;;;16.73;90.69
3428;BME280;1727;42.624;23.406;2023-05-19T12:22:08;95145.28;;;16.96;93.44
3428;BME280;1727;42.624;23.406;2023-05-19T12:24:36;95145.50;;;17.27;90.10
3428;BME280;1727;42.624;23.406;2023-05-19T12:27:05;95148.47;;;17.57;91.37
3428;BME280;1727;42.624;23.406;2023-05-19T12:29:33;95144.84;;;17.82;88.48
3428;BME280;1727;42.624;23.406;2023-05-19T12:32:00;95132.53;;;18.06;90.38
3428;BME280;1727;42.624;23.406;2023-05-19T12:34:27;95142.13;;;18.23;87.88
3428;BME280;1727;42.624;23.406;2023-05-19T12:36:54;95135.16;;;18.14;90.07
3428;BME280;1727;42.624;23.406;2023-05-19T12:39:21;95133.56;;;17.97;89.65
3428;BME280;1727;42.624;23.406;2023-05-19T12:41:47;95130.91;;;17.88;90.80
3428;BME280;1727;42.624;23.406;2023-05-19T12:44:15;95121.81;;;17.75;90.86
3428;BME280;1727;42.624;23.406;2023-05-19T12:46:44;95122.78;;;17.82;91.54
3428;BME280;1727;42.624;23.406;2023-05-19T12:49:10;95123.09;;;17.87;89.67
3428;BME280;1727;42.624;23.406;2023-05-19T12:51:37;95112.97;;;17.99;90.24
3428;BME280;1727;42.624;23.406;2023-05-19T12:54:04;95114.59;;;18.08;89.45
3428;BME280;1727;42.624;23.406;2023-05-19T12:56:31;95108.72;;;18.20;87.66
3428;BME280;1727;42.624;23.406;2023-05-19T12:58:59;95106.19;;;18.35;87.42
3428;BME280;1727;42.624;23.406;2023-05-19T13:01:28;95100.59;;;18.61;86.48
3428;BME280;1727;42.624;23.406;2023-05-19T13:03:56;95106.81;;;19.07;90.26
3428;BME280;1727;42.624;23.406;2023-05-19T13:06:23;95114.84;;;19.53;84.05
3428;BME280;1727;42.624;23.406;2023-05-19T13:08:50;95107.09;;;19.66;81.21
3428;BME280;1727;42.624;23.406;2023-05-19T13:11:17;95095.78;;;19.79;82.22
3428;BME280;1727;42.624;23.406;2023-05-19T13:13:44;95098.66;;;20.07;79.63
3428;BME280;1727;42.624;23.406;2023-05-19T13:16:11;95098.13;;;20.26;76.05
3428;BME280;1727;42.624;23.406;2023-05-19T13:18:38;95099.41;;;20.30;73.66
3428;BME280;1727;42.624;23.406;2023-05-19T13:21:06;95102.53;;;20.19;70.55
3428;BME280;1727;42.624;23.406;2023-05-19T13:23:33;95102.34;;;20.06;71.53
3428;BME280;1727;42.624;23.406;2023-05-19T13:26:00;95086.53;;;20.19;85.41